Time;durP1;ratioP1;P1;durP2;ratioP2;P2;SDS_P1;SDS_P2;PMS_P1;PMS_P2;Temp;Humidity;BMP_temperature;BMP_pressure;BME280_temperature;BME280_humidity;BME280_pressure;Samples;Min_cycle;Max_cycle;Signal;HPM_P1;HPM_P2
2024/01/10 00:00:14;;;;;;;25.90;9.43;;;;;;;;;;5077898;28;20077;-88
2024/01/10 00:02:39;;;;;;;17.63;8.38;;;;;;;;;;5070863;28;20563;-89
2024/01/10 00:05:06;;;;;;;16.40;7.57;;;;;;;;;;5072250;28;20495;-89
2024/01/10 00:07:31;;;;;;;25.35;11.00;;;;;;;;;;5071898;28;20492;-89
2024/01/10 00:09:59;;;;;;;29.45;11.82;;;;;;;;;;5078092;28;20027;-89
2024/01/10 00:12:25;;;;;;;28.35;11.23;;;;;;;;;;5076345;28;20062;-89
2024/01/10 00:14:50;;;;;;;20.95;10.27;;;;;;;;;;5079436;28;20052;-88
2024/01/10 00:17:16;;;;;;;30.52;11.23;;;;;;;;;;5079644;28;20091;-89
2024/01/10 00:19:41;;;;;;;32.03;11.57;;;;;;;;;;5075494;28;20045;-89
2024/01/10 00:22:06;;;;;;;23.17;10.63;;;;;;;;;;5079062;28;20078;-90
2024/01/10 00:24:32;;;;;;;34.80;13.48;;;;;;;;;;5070835;28;20077;-90
2024/01/10 00:26:57;;;;;;;26.98;10.68;;;;;;;;;;5076025;28;20051;-90
2024/01/10 00:29:22;;;;;;;35.25;14.07;;;;;;;;;;5078977;28;20147;-89
2024/01/10 00:31:48;;;;;;;9.32;4.43;;;;;;;;;;5068556;28;20040;-89
2024/01/10 00:34:13;;;;;;;13.27;6.13;;;;;;;;;;5067863;28;20016;-90
2024/01/10 00:36:39;;;;;;;22.17;10.43;;;;;;;;;;5070316;28;20109;-90
2024/01/10 00:39:04;;;;;;;28.40;11.48;;;;;;;;;;5079081;28;20020;-90
2024/01/10 00:41:29;;;;;;;15.40;6.68;;;;;;;;;;5072116;28;20024;-90
2024/01/10 00:43:55;;;;;;;19.00;8.25;;;;;;;;;;5085011;28;20029;-89
2024/01/10 00:46:20;;;;;;;27.10;12.10;;;;;;;;;;5073881;28;20035;-91
2024/01/10 00:48:46;;;;;;;16.15;6.53;;;;;;;;;;5079267;28;20027;-90
2024/01/10 00:51:11;;;;;;;24.60;9.07;;;;;;;;;;5080767;28;20033;-90
2024/01/10 00:53:38;;;;;;;13.82;5.25;;;;;;;;;;5071386;28;20021;-91
2024/01/10 00:56:05;;;;;;;6.90;2.33;;;;;;;;;;5071682;28;20079;-90
2024/01/10 00:58:30;;;;;;;2.42;2.22;;;;;;;;;;5069593;28;20476;-90
2024/01/10 01:00:55;;;;;;;22.05;6.82;;;;;;;;;;5063999;28;20028;-88
2024/01/10 01:03:21;;;;;;;3.80;2.63;;;;;;;;;;5074255;28;20052;-90
2024/01/10 01:05:46;;;;;;;19.92;7.25;;;;;;;;;;5077297;28;20075;-91
2024/01/10 01:08:11;;;;;;;22.63;9.80;;;;;;;;;;5070944;28;20021;-90
2024/01/10 01:10:37;;;;;;;14.63;6.13;;;;;;;;;;5070222;28;20036;-89
2024/01/10 01:13:02;;;;;;;7.40;5.30;;;;;;;;;;5062542;28;20021;-88
2024/01/10 01:15:28;;;;;;;20.38;8.90;;;;;;;;;;5071046;28;20717;-89
2024/01/10 01:17:53;;;;;;;17.60;8.00;;;;;;;;;;5078591;28;20019;-90
2024/01/10 01:20:19;;;;;;;8.48;2.67;;;;;;;;;;5081345;28;20016;-89
2024/01/10 01:22:44;;;;;;;10.35;5.60;;;;;;;;;;5080188;28;20028;-88
2024/01/10 01:25:10;;;;;;;31.40;12.75;;;;;;;;;;5078353;28;20024;-89
2024/01/10 01:27:35;;;;;;;27.98;12.90;;;;;;;;;;5055089;28;20043;-89
2024/01/10 01:30:00;;;;;;;26.83;12.40;;;;;;;;;;5070436;28;20082;-89
2024/01/10 01:32:26;;;;;;;11.68;5.95;;;;;;;;;;5067307;28;20361;-88
2024/01/10 01:34:51;;;;;;;31.88;12.70;;;;;;;;;;5068942;28;20025;-90
2024/01/10 01:37:16;;;;;;;30.85;13.23;;;;;;;;;;5077607;28;20028;-90
2024/01/10 01:39:42;;;;;;;32.25;13.68;;;;;;;;;;5079138;28;20089;-88
2024/01/10 01:42:07;;;;;;;37.85;12.80;;;;;;;;;;5068684;28;20032;-90
2024/01/10 01:44:33;;;;;;;32.85;12.40;;;;;;;;;;5069944;28;20016;-90
2024/01/10 01:46:58;;;;;;;7.93;4.18;;;;;;;;;;5067267;28;20029;-90
2024/01/10 01:49:25;;;;;;;14.68;5.80;;;;;;;;;;5068346;28;20094;-90
2024/01/10 01:51:51;;;;;;;16.05;6.85;;;;;;;;;;5063529;28;20107;-89
2024/01/10 01:54:17;;;;;;;6.15;3.35;;;;;;;;;;5073833;28;20551;-90
2024/01/10 01:56:43;;;;;;;34.97;13.95;;;;;;;;;;5068322;28;20107;-89
2024/01/10 01:59:09;;;;;;;29.20;11.98;;;;;;;;;;5056317;28;20024;-89
2024/01/10 02:01:35;;;;;;;8.80;4.38;;;;;;;;;;5071281;28;20070;-89
2024/01/10 02:04:02;;;;;;;26.45;10.10;;;;;;;;;;5069508;28;20021;-89
2024/01/10 02:06:29;;;;;;;18.90;8.98;;;;;;;;;;5082299;28;20652;-89
2024/01/10 02:08:55;;;;;;;26.30;11.70;;;;;;;;;;5076660;28;20499;-90
2024/01/10 02:11:20;;;;;;;20.05;10.30;;;;;;;;;;5075063;28;20063;-89
2024/01/10 02:13:46;;;;;;;21.58;9.63;;;;;;;;;;5071160;28;20031;-89
2024/01/10 02:16:11;;;;;;;31.52;11.55;;;;;;;;;;5065060;28;20032;-90
2024/01/10 02:18:38;;;;;;;33.75;13.73;;;;;;;;;;5073097;28;20468;-90
2024/01/10 02:21:03;;;;;;;32.50;13.13;;;;;;;;;;5061540;28;20021;-89
2024/01/10 02:23:28;;;;;;;7.93;4.18;;;;;;;;;;5071209;28;20047;-89
2024/01/10 02:25:54;;;;;;;42.25;14.05;;;;;;;;;;5074905;28;20060;-90
2024/01/10 02:28:19;;;;;;;20.60;7.18;;;;;;;;;;5081148;28;20027;-90
2024/01/10 02:30:47;;;;;;;9.00;4.57;;;;;;;;;;5075490;28;20029;-90
2024/01/10 02:33:12;;;;;;;33.33;13.68;;;;;;;;;;5078212;28;20059;-90
2024/01/10 02:35:37;;;;;;;34.80;13.20;;;;;;;;;;5071560;28;20070;-90
2024/01/10 02:38:04;;;;;;;32.33;12.90;;;;;;;;;;5082662;28;20047;-90
2024/01/10 02:40:29;;;;;;;14.48;6.90;;;;;;;;;;5071472;28;20097;-90
2024/01/10 02:42:54;;;;;;;13.82;6.47;;;;;;;;;;5077306;28;20520;-90
2024/01/10 02:45:20;;;;;;;11.68;4.93;;;;;;;;;;5069940;28;20166;-90
2024/01/10 02:47:46;;;;;;;28.98;11.13;;;;;;;;;;5068292;28;20056;-90
2024/01/10 02:50:11;;;;;;;38.95;13.68;;;;;;;;;;5082277;28;20469;-90
2024/01/10 02:52:37;;;;;;;38.13;12.52;;;;;;;;;;5058773;28;20071;-90
2024/01/10 02:55:02;;;;;;;36.58;13.70;;;;;;;;;;5082280;28;20032;-89
2024/01/10 02:57:27;;;;;;;23.33;9.20;;;;;;;;;;5060418;28;20111;-90
2024/01/10 02:59:53;;;;;;;22.50;8.15;;;;;;;;;;5074785;28;20031;-91
2024/01/10 03:02:18;;;;;;;20.92;8.57;;;;;;;;;;5077166;28;20032;-90
2024/01/10 03:04:46;;;;;;;16.17;7.70;;;;;;;;;;5069648;28;20020;-90
2024/01/10 03:07:12;;;;;;;25.42;11.05;;;;;;;;;;5080774;28;20023;-90
2024/01/10 03:09:37;;;;;;;34.78;13.35;;;;;;;;;;5064715;28;20025;-90
2024/01/10 03:12:03;;;;;;;35.53;12.88;;;;;;;;;;5059019;28;20051;-90
2024/01/10 03:14:28;;;;;;;30.00;12.30;;;;;;;;;;5064098;28;20872;-90
2024/01/10 03:16:54;;;;;;;13.70;5.93;;;;;;;;;;5070965;28;20362;-90
2024/01/10 03:19:19;;;;;;;24.85;9.48;;;;;;;;;;5070505;28;20028;-89
2024/01/10 03:21:44;;;;;;;33.78;14.82;;;;;;;;;;5077832;28;20560;-90
2024/01/10 03:24:10;;;;;;;15.60;8.68;;;;;;;;;;5076489;28;20086;-89
2024/01/10 03:26:35;;;;;;;37.00;12.65;;;;;;;;;;5078067;28;20020;-89
2024/01/10 03:29:01;;;;;;;4.82;2.85;;;;;;;;;;5084456;28;20063;-89
2024/01/10 03:31:28;;;;;;;18.40;10.18;;;;;;;;;;5079900;28;20039;-89
2024/01/10 03:33:53;;;;;;;5.63;1.92;;;;;;;;;;5074842;28;20016;-88
2024/01/10 03:36:19;;;;;;;31.27;10.40;;;;;;;;;;5071106;28;20038;-90
2024/01/10 03:38:45;;;;;;;18.08;8.45;;;;;;;;;;5081312;28;20141;-88
2024/01/10 03:41:17;;;;;;;13.00;5.50;;;;;;;;;;5080120;28;20043;-88
2024/01/10 03:43:43;;;;;;;34.33;12.85;;;;;;;;;;5077990;28;20038;-89
2024/01/10 03:46:12;;;;;;;27.33;11.77;;;;;;;;;;5072866;28;20029;-88
2024/01/10 03:48:42;;;;;;;5.10;2.42;;;;;;;;;;5078278;28;20046;-89
2024/01/10 03:51:08;;;;;;;14.15;7.32;;;;;;;;;;5073864;28;20508;-89
2024/01/10 03:53:34;;;;;;;8.25;3.33;;;;;;;;;;5075459;28;20128;-89
2024/01/10 03:55:59;;;;;;;20.63;8.85;;;;;;;;;;5074166;28;20048;-90
2024/01/10 03:58:26;;;;;;;26.33;12.30;;;;;;;;;;5070080;28;20504;-88
2024/01/10 04:00:51;;;;;;;30.60;13.55;;;;;;;;;;5073857;28;20032;-89
2024/01/10 04:03:16;;;;;;;11.88;3.10;;;;;;;;;;5077493;28;20490;-90
2024/01/10 04:05:42;;;;;;;25.90;9.68;;;;;;;;;;5079907;28;20128;-90
2024/01/10 04:08:08;;;;;;;39.38;14.30;;;;;;;;;;5074961;28;20044;-89
2024/01/10 04:10:33;;;;;;;28.40;13.02;;;;;;;;;;5072698;28;20036;-90
2024/01/10 04:12:58;;;;;;;31.48;12.35;;;;;;;;;;5075947;28;20051;-89
2024/01/10 04:15:24;;;;;;;33.83;12.23;;;;;;;;;;5069461;28;20024;-90
2024/01/10 04:17:49;;;;;;;32.53;14.05;;;;;;;;;;5081796;28;20032;-90
2024/01/10 04:20:15;;;;;;;37.35;14.40;;;;;;;;;;5070418;28;20031;-90
2024/01/10 04:22:40;;;;;;;36.08;15.02;;;;;;;;;;5069625;28;20032;-88
2024/01/10 04:25:07;;;;;;;19.15;10.82;;;;;;;;;;5075007;28;20020;-89
2024/01/10 04:27:33;;;;;;;4.05;2.50;;;;;;;;;;5068718;28;20082;-90
2024/01/10 04:29:58;;;;;;;5.97;3.83;;;;;;;;;;5083322;28;20434;-90
2024/01/10 04:32:24;;;;;;;16.05;5.05;;;;;;;;;;5088121;28;20272;-90
2024/01/10 04:34:49;;;;;;;38.40;13.68;;;;;;;;;;5075460;28;21597;-89
2024/01/10 04:37:15;;;;;;;26.85;9.90;;;;;;;;;;5076550;28;20729;-89
2024/01/10 04:39:42;;;;;;;30.08;11.65;;;;;;;;;;5084774;28;20051;-90
2024/01/10 04:42:10;;;;;;;27.85;8.73;;;;;;;;;;5090558;28;20468;-90
2024/01/10 04:44:35;;;;;;;32.40;11.77;;;;;;;;;;5080175;28;20033;-89
2024/01/10 04:47:01;;;;;;;35.10;14.18;;;;;;;;;;5058847;28;20119;-89
2024/01/10 04:49:26;;;;;;;14.57;5.88;;;;;;;;;;5071716;28;20020;-88
2024/01/10 04:51:52;;;;;;;12.23;5.47;;;;;;;;;;5076949;28;20028;-89
2024/01/10 04:54:18;;;;;;;18.67;8.02;;;;;;;;;;5090730;28;20028;-89
2024/01/10 04:56:43;;;;;;;15.98;7.63;;;;;;;;;;5077484;28;20120;-88
2024/01/10 04:59:08;;;;;;;15.85;6.40;;;;;;;;;;5080986;28;20024;-89
2024/01/10 05:01:34;;;;;;;29.23;11.25;;;;;;;;;;5087550;28;20036;-89
2024/01/10 05:03:59;;;;;;;10.18;4.63;;;;;;;;;;5079131;28;20069;-88
2024/01/10 05:06:25;;;;;;;7.15;3.40;;;;;;;;;;5079465;28;20073;-89
2024/01/10 05:08:51;;;;;;;8.07;2.42;;;;;;;;;;5079312;28;20115;-90
2024/01/10 05:11:16;;;;;;;11.18;7.95;;;;;;;;;;5077322;28;20115;-89
2024/01/10 05:13:43;;;;;;;8.82;5.68;;;;;;;;;;5074019;28;20028;-90
2024/01/10 05:16:08;;;;;;;17.67;8.80;;;;;;;;;;5068185;28;20096;-89
2024/01/10 05:18:34;;;;;;;34.30;14.05;;;;;;;;;;5078376;28;20692;-89
2024/01/10 05:21:00;;;;;;;7.95;4.60;;;;;;;;;;5080360;28;20389;-89
2024/01/10 05:23:25;;;;;;;6.70;5.70;;;;;;;;;;5080555;28;20036;-89
2024/01/10 05:25:51;;;;;;;4.25;2.15;;;;;;;;;;5078394;28;20542;-89
2024/01/10 05:28:16;;;;;;;27.67;11.68;;;;;;;;;;5070694;28;20056;-89
2024/01/10 05:30:44;;;;;;;31.75;14.57;;;;;;;;;;5069650;28;20524;-89
2024/01/10 05:33:10;;;;;;;9.95;5.75;;;;;;;;;;5074503;28;20051;-89
2024/01/10 05:35:38;;;;;;;14.95;5.50;;;;;;;;;;5067489;28;20020;-89
2024/01/10 05:38:04;;;;;;;9.68;4.72;;;;;;;;;;5062665;28;20059;-89
2024/01/10 05:40:32;;;;;;;29.80;11.68;;;;;;;;;;5081427;28;20579;-89
2024/01/10 05:42:59;;;;;;;17.42;7.50;;;;;;;;;;5070971;28;20068;-89
2024/01/10 05:45:25;;;;;;;23.85;10.93;;;;;;;;;;5078641;28;20047;-89
2024/01/10 05:47:51;;;;;;;15.20;7.20;;;;;;;;;;5069288;28;20020;-89
2024/01/10 05:50:17;;;;;;;20.45;9.43;;;;;;;;;;5077710;28;21142;-90
2024/01/10 05:52:43;;;;;;;15.18;7.57;;;;;;;;;;5075492;28;20081;-90
2024/01/10 05:55:09;;;;;;;28.77;11.68;;;;;;;;;;5082968;28;20031;-89
2024/01/10 05:57:36;;;;;;;17.92;6.85;;;;;;;;;;5073224;28;20107;-89
2024/01/10 06:00:01;;;;;;;25.45;8.25;;;;;;;;;;5075486;28;20017;-90
2024/01/10 06:02:26;;;;;;;19.35;8.13;;;;;;;;;;5067797;28;20480;-90
2024/01/10 06:04:52;;;;;;;31.55;13.00;;;;;;;;;;5066199;28;20499;-88
2024/01/10 06:07:18;;;;;;;13.80;6.28;;;;;;;;;;5083040;28;20062;-90
2024/01/10 06:09:43;;;;;;;34.38;14.15;;;;;;;;;;5075289;28;20403;-91
2024/01/10 06:12:09;;;;;;;36.47;14.35;;;;;;;;;;5075276;28;20511;-92
2024/01/10 06:14:35;;;;;;;28.10;9.65;;;;;;;;;;5074672;28;20022;-90
2024/01/10 06:17:03;;;;;;;45.35;15.05;;;;;;;;;;5053678;28;20051;-91
2024/01/10 06:19:29;;;;;;;11.95;5.97;;;;;;;;;;5076862;28;20024;-91
2024/01/10 06:21:55;;;;;;;36.25;11.90;;;;;;;;;;5084115;28;20039;-90
2024/01/10 06:24:21;;;;;;;28.48;9.60;;;;;;;;;;5090007;28;20146;-91
2024/01/10 06:26:46;;;;;;;6.43;4.38;;;;;;;;;;5075410;28;20158;-90
2024/01/10 06:29:11;;;;;;;27.58;12.93;;;;;;;;;;5085906;28;20020;-88
2024/01/10 06:31:37;;;;;;;28.02;13.00;;;;;;;;;;5064523;28;20093;-93
2024/01/10 06:34:03;;;;;;;32.53;11.98;;;;;;;;;;5076943;28;20107;-92
2024/01/10 06:36:28;;;;;;;35.88;13.48;;;;;;;;;;5088674;28;20058;-90
2024/01/10 06:38:54;;;;;;;17.05;7.40;;;;;;;;;;5072933;28;20456;-91
2024/01/10 06:41:24;;;;;;;21.63;9.45;;;;;;;;;;5080546;28;20032;-90
2024/01/10 06:43:50;;;;;;;31.17;12.32;;;;;;;;;;5068908;28;20039;-90
2024/01/10 06:46:16;;;;;;;12.32;4.80;;;;;;;;;;5073447;28;20055;-90
2024/01/10 06:48:41;;;;;;;8.30;5.05;;;;;;;;;;5079773;28;20059;-90
2024/01/10 06:51:11;;;;;;;33.53;15.13;;;;;;;;;;5072608;28;20082;-89
2024/01/10 06:53:36;;;;;;;4.10;1.63;;;;;;;;;;5078426;28;20420;-91
2024/01/10 06:56:01;;;;;;;17.90;7.20;;;;;;;;;;5072719;28;20023;-90
2024/01/10 06:58:27;;;;;;;6.60;5.75;;;;;;;;;;5079133;28;20101;-90
2024/01/10 07:00:52;;;;;;;35.30;14.13;;;;;;;;;;5080847;28;20817;-90
2024/01/10 07:03:17;;;;;;;15.80;8.43;;;;;;;;;;5079733;28;20033;-90
2024/01/10 07:05:44;;;;;;;18.17;9.63;;;;;;;;;;5074375;28;20067;-90
2024/01/10 07:08:09;;;;;;;22.35;10.52;;;;;;;;;;5082181;28;20024;-91
2024/01/10 07:10:35;;;;;;;4.85;3.13;;;;;;;;;;5075745;28;20073;-90
2024/01/10 07:13:04;;;;;;;27.42;10.32;;;;;;;;;;5081469;28;20031;-90
2024/01/10 07:15:29;;;;;;;2.95;2.78;;;;;;;;;;5075751;28;20839;-90
2024/01/10 07:17:55;;;;;;;35.90;15.80;;;;;;;;;;5069805;28;20028;-90
2024/01/10 07:20:20;;;;;;;7.90;3.55;;;;;;;;;;5079512;28;20020;-90
2024/01/10 07:22:46;;;;;;;36.13;15.40;;;;;;;;;;5069037;28;20437;-90
2024/01/10 07:25:14;;;;;;;40.30;14.18;;;;;;;;;;5079824;28;20026;-91
2024/01/10 07:27:40;;;;;;;37.08;13.52;;;;;;;;;;5089164;28;20031;-90
2024/01/10 07:30:13;;;;;;;14.40;6.88;;;;;;;;;;5072565;28;20107;-91
2024/01/10 07:32:43;;;;;;;38.47;12.25;;;;;;;;;;5081320;28;20123;-90
2024/01/10 07:35:09;;;;;;;34.28;15.23;;;;;;;;;;5063116;28;20556;-90
2024/01/10 07:37:39;;;;;;;20.15;9.70;;;;;;;;;;5083364;28;20024;-91
2024/01/10 07:40:08;;;;;;;17.55;9.38;;;;;;;;;;5089025;28;20043;-89
2024/01/10 07:42:34;;;;;;;19.70;7.85;;;;;;;;;;5062993;28;20120;-92
2024/01/10 07:45:04;;;;;;;23.13;9.27;;;;;;;;;;5063444;28;20051;-90
2024/01/10 07:47:34;;;;;;;44.03;18.23;;;;;;;;;;5082754;28;20480;-89
2024/01/10 07:49:59;;;;;;;39.38;14.50;;;;;;;;;;5076218;28;20016;-89
2024/01/10 07:52:25;;;;;;;43.17;18.10;;;;;;;;;;5067613;28;20037;-89
2024/01/10 07:54:50;;;;;;;29.77;13.65;;;;;;;;;;5065092;28;20020;-91
2024/01/10 07:57:18;;;;;;;43.00;15.68;;;;;;;;;;5065794;28;20047;-89
2024/01/10 07:59:44;;;;;;;36.65;15.65;;;;;;;;;;5078920;28;20069;-89
2024/01/10 08:02:10;;;;;;;36.10;14.40;;;;;;;;;;5071053;28;20028;-89
2024/01/10 08:04:35;;;;;;;31.10;12.43;;;;;;;;;;5068672;28;20111;-90
2024/01/10 08:07:01;;;;;;;46.75;18.80;;;;;;;;;;5069489;28;20115;-90
2024/01/10 08:09:26;;;;;;;46.10;18.60;;;;;;;;;;5076104;28;20469;-89
2024/01/10 08:11:52;;;;;;;56.25;19.15;;;;;;;;;;5065104;28;20033;-90
2024/01/10 08:14:17;;;;;;;42.97;14.80;;;;;;;;;;5075431;28;20070;-90
2024/01/10 08:16:42;;;;;;;36.92;14.60;;;;;;;;;;5075778;28;20115;-89
2024/01/10 08:19:08;;;;;;;24.98;12.63;;;;;;;;;;5091085;28;20020;-89
2024/01/10 08:21:34;;;;;;;24.40;11.27;;;;;;;;;;5074827;28;20043;-90
2024/01/10 08:24:01;;;;;;;32.53;14.27;;;;;;;;;;5066133;28;20104;-89
2024/01/10 08:26:27;;;;;;;45.40;19.25;;;;;;;;;;5073480;28;20079;-89
2024/01/10 08:28:52;;;;;;;37.55;14.50;;;;;;;;;;5072419;28;20396;-91
2024/01/10 08:31:18;;;;;;;39.42;17.48;;;;;;;;;;5075398;28;20396;-89
2024/01/10 08:33:43;;;;;;;44.17;17.35;;;;;;;;;;5079716;28;20019;-89
2024/01/10 08:36:12;;;;;;;39.03;16.48;;;;;;;;;;5082848;28;20016;-89
2024/01/10 08:38:38;;;;;;;46.15;18.42;;;;;;;;;;5070899;28;20065;-89
2024/01/10 08:41:04;;;;;;;48.38;21.30;;;;;;;;;;5084958;28;20395;-90
2024/01/10 08:43:30;;;;;;;51.47;19.15;;;;;;;;;;5072729;28;20025;-90
2024/01/10 08:45:57;;;;;;;36.90;18.20;;;;;;;;;;5080131;28;20499;-89
2024/01/10 08:48:23;;;;;;;44.33;17.38;;;;;;;;;;5079194;28;20212;-90
2024/01/10 08:50:48;;;;;;;38.25;15.55;;;;;;;;;;5076371;28;20051;-90
2024/01/10 08:53:14;;;;;;;39.90;15.30;;;;;;;;;;5070644;28;20229;-90
2024/01/10 08:55:39;;;;;;;44.10;17.17;;;;;;;;;;5075674;28;20085;-89
2024/01/10 08:58:04;;;;;;;36.08;15.73;;;;;;;;;;5075857;28;20042;-91
2024/01/10 09:00:30;;;;;;;42.83;16.88;;;;;;;;;;5063729;28;20529;-90
2024/01/10 09:02:55;;;;;;;35.70;15.68;;;;;;;;;;5061321;28;20043;-89
2024/01/10 09:05:21;;;;;;;48.25;18.80;;;;;;;;;;5071062;28;20052;-90
2024/01/10 09:07:47;;;;;;;48.90;21.63;;;;;;;;;;5077431;28;20625;-90
2024/01/10 09:10:13;;;;;;;42.63;17.92;;;;;;;;;;5067937;28;20016;-89
2024/01/10 09:12:38;;;;;;;44.47;15.98;;;;;;;;;;5070748;28;20054;-89
2024/01/10 09:15:04;;;;;;;44.42;18.00;;;;;;;;;;5073282;28;20074;-92
2024/01/10 09:17:30;;;;;;;48.72;19.63;;;;;;;;;;5084859;28;20101;-89
2024/01/10 09:19:55;;;;;;;49.20;19.50;;;;;;;;;;5078431;28;20493;-89
2024/01/10 09:22:20;;;;;;;51.50;19.75;;;;;;;;;;5082217;28;20704;-91
2024/01/10 09:24:46;;;;;;;44.20;18.35;;;;;;;;;;5069930;28;20055;-89
2024/01/10 09:27:11;;;;;;;42.70;17.73;;;;;;;;;;5065616;28;20473;-89
2024/01/10 09:29:37;;;;;;;46.88;19.40;;;;;;;;;;5077751;28;20020;-89
2024/01/10 09:32:03;;;;;;;44.25;18.75;;;;;;;;;;5069607;28;20552;-90
2024/01/10 09:34:29;;;;;;;42.08;19.02;;;;;;;;;;5077368;28;20295;-89
2024/01/10 09:36:54;;;;;;;45.50;15.52;;;;;;;;;;5074878;28;20017;-89
2024/01/10 09:39:20;;;;;;;47.67;18.27;;;;;;;;;;5079642;28;20107;-90
2024/01/10 09:41:48;;;;;;;40.75;18.08;;;;;;;;;;5072773;28;20016;-89
2024/01/10 09:44:17;;;;;;;51.78;23.00;;;;;;;;;;5071456;28;20107;-89
2024/01/10 09:46:50;;;;;;;44.88;16.58;;;;;;;;;;5071946;28;20512;-89
2024/01/10 09:49:16;;;;;;;44.55;18.35;;;;;;;;;;5074094;28;20021;-89
2024/01/10 09:51:42;;;;;;;51.65;20.05;;;;;;;;;;5081450;28;20388;-89
2024/01/10 09:54:07;;;;;;;41.38;16.23;;;;;;;;;;5070836;28;20024;-89
2024/01/10 09:56:32;;;;;;;53.10;18.70;;;;;;;;;;5068855;28;20017;-90
2024/01/10 09:59:04;;;;;;;41.25;15.80;;;;;;;;;;5079366;28;20071;-89
2024/01/10 10:01:30;;;;;;;44.03;18.33;;;;;;;;;;5074538;28;22975;-90
2024/01/10 10:03:57;;;;;;;53.95;22.80;;;;;;;;;;5065260;28;20052;-89
2024/01/10 10:06:22;;;;;;;51.15;20.38;;;;;;;;;;5066493;28;20027;-89
2024/01/10 10:08:48;;;;;;;56.58;22.45;;;;;;;;;;5081347;28;20028;-89
2024/01/10 10:11:14;;;;;;;43.97;17.15;;;;;;;;;;5070628;28;20038;-90
2024/01/10 10:13:41;;;;;;;28.98;13.50;;;;;;;;;;5075745;28;21060;-90
2024/01/10 10:16:09;;;;;;;38.45;16.25;;;;;;;;;;5069934;28;20031;-88
2024/01/10 10:18:35;;;;;;;42.85;17.70;;;;;;;;;;5070265;28;20063;-87
2024/01/10 10:21:13;;;;;;;45.78;19.48;;;;;;;;;;5062156;28;20503;-88
2024/01/10 10:23:40;;;;;;;54.00;20.23;;;;;;;;;;5079506;28;20023;-89
2024/01/10 10:26:20;;;;;;;53.05;21.83;;;;;;;;;;5075444;28;20048;-89
2024/01/10 10:28:49;;;;;;;45.88;18.42;;;;;;;;;;5077581;28;20116;-89
2024/01/10 10:31:16;;;;;;;47.50;18.38;;;;;;;;;;5081118;28;20081;-89
2024/01/10 10:33:43;;;;;;;49.95;17.67;;;;;;;;;;5076424;28;20073;-89
2024/01/10 10:36:13;;;;;;;47.65;18.58;;;;;;;;;;5074325;28;20108;-89
2024/01/10 10:38:39;;;;;;;46.40;18.75;;;;;;;;;;5074649;28;20036;-90
2024/01/10 10:41:10;;;;;;;49.42;20.13;;;;;;;;;;5077999;28;20504;-89
2024/01/10 10:43:37;;;;;;;54.72;23.08;;;;;;;;;;5068377;28;20503;-88
2024/01/10 10:46:07;;;;;;;54.95;20.33;;;;;;;;;;5075163;28;20028;-89
2024/01/10 10:48:34;;;;;;;45.13;18.30;;;;;;;;;;5067532;28;20033;-89
2024/01/10 10:51:10;;;;;;;36.75;15.43;;;;;;;;;;5065048;28;20032;-89
2024/01/10 10:53:36;;;;;;;47.58;17.88;;;;;;;;;;5063126;28;20032;-88
2024/01/10 10:56:07;;;;;;;42.83;17.98;;;;;;;;;;5079433;28;20329;-89
2024/01/10 10:58:45;;;;;;;44.63;18.08;;;;;;;;;;5073997;28;20032;-89
2024/01/10 11:01:14;;;;;;;34.15;13.48;;;;;;;;;;5070040;28;20144;-89
2024/01/10 11:03:41;;;;;;;38.10;15.43;;;;;;;;;;5076041;28;20123;-89
2024/01/10 11:06:07;;;;;;;48.22;19.95;;;;;;;;;;5064246;28;20035;-89
2024/01/10 11:08:38;;;;;;;43.28;18.63;;;;;;;;;;5069863;28;20123;-89
2024/01/10 11:11:06;;;;;;;;;;;;;;;;;;5080248;28;20093;-89
2024/01/10 11:14:08;;;;;;;43.53;17.85;;;;;;;;;;5068624;28;20280;-90
2024/01/10 11:16:47;;;;;;;39.70;16.25;;;;;;;;;;5057738;28;20120;-90
2024/01/10 11:19:31;;;;;;;38.47;15.48;;;;;;;;;;5074206;28;20020;-90
2024/01/10 11:22:18;;;;;;;45.15;16.73;;;;;;;;;;5068721;28;20024;-90
2024/01/10 11:24:44;;;;;;;24.85;10.50;;;;;;;;;;5069840;28;20028;-89
2024/01/10 11:27:15;;;;;;;34.60;15.02;;;;;;;;;;5080312;28;20613;-91
2024/01/10 11:29:44;;;;;;;28.83;12.30;;;;;;;;;;5067368;28;20055;-90
2024/01/10 11:32:14;;;;;;;32.97;15.10;;;;;;;;;;5071017;28;20032;-90
2024/01/10 11:35:11;;;;;;;46.35;20.27;;;;;;;;;;5069985;28;20017;-90
2024/01/10 11:37:43;;;;;;;27.40;12.20;;;;;;;;;;5077043;28;20024;-90
2024/01/10 11:40:09;;;;;;;41.38;16.38;;;;;;;;;;5072309;28;20341;-90
2024/01/10 11:42:48;;;;;;;38.72;14.20;;;;;;;;;;5071778;28;20038;-90
2024/01/10 11:45:34;;;;;;;31.13;13.15;;;;;;;;;;5070264;28;20046;-90
2024/01/10 11:47:59;;;;;;;46.03;18.98;;;;;;;;;;5060482;28;20040;-90
2024/01/10 11:50:26;;;;;;;53.17;23.08;;;;;;;;;;5077211;28;20131;-90
2024/01/10 11:52:55;;;;;;;32.83;14.35;;;;;;;;;;5080593;28;20028;-89
2024/01/10 11:55:52;;;;;;;39.40;15.32;;;;;;;;;;5080098;28;20551;-91
2024/01/10 11:58:17;;;;;;;40.75;15.27;;;;;;;;;;5072689;28;20028;-91
2024/01/10 12:00:43;;;;;;;41.80;15.75;;;;;;;;;;5068874;28;20062;-90
2024/01/10 12:03:11;;;;;;;34.50;14.63;;;;;;;;;;5068204;28;20021;-89
2024/01/10 12:05:36;;;;;;;41.83;14.90;;;;;;;;;;5064557;28;20040;-90
2024/01/10 12:08:06;;;;;;;37.38;15.52;;;;;;;;;;5072243;28;20028;-91
2024/01/10 12:10:36;;;;;;;35.90;13.88;;;;;;;;;;5077895;28;20077;-91
2024/01/10 12:13:03;;;;;;;33.75;12.88;;;;;;;;;;5072496;28;20108;-90
2024/01/10 12:15:28;;;;;;;40.45;17.35;;;;;;;;;;5071439;28;20484;-90
2024/01/10 12:17:53;;;;;;;39.15;15.13;;;;;;;;;;5069472;28;20070;-91
2024/01/10 12:20:19;;;;;;;29.73;13.10;;;;;;;;;;5068599;28;20024;-90
2024/01/10 12:22:44;;;;;;;34.03;14.25;;;;;;;;;;5076637;28;20024;-89
2024/01/10 12:25:10;;;;;;;29.65;13.68;;;;;;;;;;5075157;28;20036;-91
2024/01/10 12:27:35;;;;;;;29.00;12.45;;;;;;;;;;5072951;28;20050;-92
2024/01/10 12:30:02;;;;;;;36.13;15.25;;;;;;;;;;5073917;28;20079;-90
2024/01/10 12:32:28;;;;;;;32.47;12.63;;;;;;;;;;5080086;28;20047;-89
2024/01/10 12:34:59;;;;;;;42.78;15.15;;;;;;;;;;5081023;28;20036;-90
2024/01/10 12:37:25;;;;;;;40.58;19.35;;;;;;;;;;5068208;28;20068;-93
2024/01/10 12:39:50;;;;;;;38.05;16.05;;;;;;;;;;5077708;28;20055;-91
2024/01/10 12:42:16;;;;;;;36.83;14.75;;;;;;;;;;5078075;28;20031;-91
2024/01/10 12:44:46;;;;;;;39.58;17.60;;;;;;;;;;5069743;28;20654;-92
2024/01/10 12:47:19;;;;;;;42.72;18.10;;;;;;;;;;5069683;28;20032;-92
2024/01/10 12:49:45;;;;;;;40.08;15.07;;;;;;;;;;5075013;28;20013;-91
2024/01/10 12:52:13;;;;;;;39.08;16.20;;;;;;;;;;5069475;28;21236;-89
2024/01/10 12:54:39;;;;;;;31.20;13.32;;;;;;;;;;5071063;28;20187;-89
2024/01/10 12:57:04;;;;;;;39.60;15.30;;;;;;;;;;5082094;28;20040;-91
2024/01/10 12:59:30;;;;;;;38.58;14.10;;;;;;;;;;5073242;28;20024;-92
2024/01/10 13:01:57;;;;;;;30.15;12.45;;;;;;;;;;5067823;28;20379;-89
2024/01/10 13:04:22;;;;;;;36.10;14.07;;;;;;;;;;5074817;28;20486;-91
2024/01/10 13:06:48;;;;;;;12.52;6.63;;;;;;;;;;5073413;28;20032;-91
2024/01/10 13:09:13;;;;;;;30.70;12.18;;;;;;;;;;5072326;28;20050;-91
2024/01/10 13:11:38;;;;;;;45.53;18.00;;;;;;;;;;5060784;28;20427;-91
2024/01/10 13:14:04;;;;;;;33.95;13.50;;;;;;;;;;5068915;28;20031;-89
2024/01/10 13:16:30;;;;;;;26.40;12.05;;;;;;;;;;5065391;28;20028;-92
2024/01/10 13:18:57;;;;;;;30.80;13.65;;;;;;;;;;5061071;28;20024;-92
2024/01/10 13:21:22;;;;;;;41.53;15.38;;;;;;;;;;5077199;28;20036;-92
2024/01/10 13:23:48;;;;;;;38.05;15.90;;;;;;;;;;5061892;28;20245;-91
2024/01/10 13:26:14;;;;;;;42.30;19.38;;;;;;;;;;5072827;28;20048;-91
2024/01/10 13:28:40;;;;;;;44.58;16.40;;;;;;;;;;5074561;28;20085;-92
2024/01/10 13:31:06;;;;;;;34.58;13.38;;;;;;;;;;5069753;28;20032;-91
2024/01/10 13:33:31;;;;;;;45.47;15.02;;;;;;;;;;5070620;28;20140;-92
2024/01/10 13:35:57;;;;;;;24.15;8.23;;;;;;;;;;5066006;28;20082;-91
2024/01/10 13:38:24;;;;;;;40.67;14.45;;;;;;;;;;5067522;28;20073;-89
2024/01/10 13:40:50;;;;;;;28.60;13.57;;;;;;;;;;5074908;28;20024;-92
2024/01/10 13:43:15;;;;;;;32.88;12.23;;;;;;;;;;5074405;28;20032;-92
2024/01/10 13:45:41;;;;;;;33.53;15.10;;;;;;;;;;5072927;28;20058;-89
2024/01/10 13:48:07;;;;;;;22.33;10.52;;;;;;;;;;5074338;28;20698;-93
2024/01/10 13:50:36;;;;;;;35.30;12.43;;;;;;;;;;5062350;28;20166;-91
2024/01/10 13:53:13;;;;;;;43.42;16.25;;;;;;;;;;5070497;28;20024;-89
2024/01/10 13:55:39;;;;;;;24.60;9.98;;;;;;;;;;5072992;28;20035;-93
2024/01/10 13:58:04;;;;;;;22.60;9.57;;;;;;;;;;5071819;28;20021;-91
2024/01/10 14:00:30;;;;;;;28.63;11.48;;;;;;;;;;5074139;28;20103;-91
2024/01/10 14:02:59;;;;;;;30.63;12.43;;;;;;;;;;5081431;28;20031;-92
2024/01/10 14:05:27;;;;;;;29.08;11.55;;;;;;;;;;5077617;28;20016;-92
2024/01/10 14:07:53;;;;;;;28.98;11.98;;;;;;;;;;5085951;28;20049;-91
2024/01/10 14:10:18;;;;;;;17.42;7.97;;;;;;;;;;5091241;28;20028;-91
2024/01/10 14:12:45;;;;;;;30.05;12.43;;;;;;;;;;5074229;28;20032;-91
2024/01/10 14:15:10;;;;;;;16.40;7.28;;;;;;;;;;5075764;28;20024;-90
2024/01/10 14:17:36;;;;;;;26.05;11.10;;;;;;;;;;5072656;28;20409;-90
2024/01/10 14:20:06;;;;;;;27.45;11.57;;;;;;;;;;5077716;28;20020;-89